createdAt,value
2017-08-04T00:00:11.029Z,0
2017-08-04T00:01:10.523Z,0
2017-08-04T00:02:10.246Z,0
2017-08-04T00:03:11.314Z,0
2017-08-04T00:04:11.342Z,0
2017-08-04T00:05:11.378Z,0
2017-08-04T00:06:11.116Z,0
2017-08-04T00:07:11.548Z,0
2017-08-04T00:08:11.577Z,0
2017-08-04T00:09:12.031Z,0
2017-08-04T00:10:12.123Z,0
2017-08-04T00:11:12.076Z,0
2017-08-04T00:12:12.439Z,0
2017-08-04T00:13:12.474Z,0
2017-08-04T00:14:12.204Z,0
2017-08-04T00:15:12.599Z,0
2017-08-04T00:16:12.273Z,0
2017-08-04T00:17:12.619Z,0
2017-08-04T00:18:12.345Z,0
2017-08-04T00:19:12.698Z,0
2017-08-04T00:20:12.419Z,0
2017-08-04T00:21:12.447Z,0
2017-08-04T00:22:12.483Z,0
2017-08-04T00:23:13.238Z,0
2017-08-04T00:24:13.264Z,0
2017-08-04T00:25:13.003Z,0
2017-08-04T00:26:13.440Z,0
2017-08-04T00:27:13.463Z,0
2017-08-04T00:28:13.734Z,0
2017-08-04T00:29:13.541Z,0
2017-08-04T00:30:13.572Z,0
2017-08-04T00:31:13.612Z,0
2017-08-04T00:32:13.341Z,0
2017-08-04T00:33:13.770Z,0
2017-08-04T00:34:14.126Z,0
2017-08-04T00:35:13.948Z,0
2017-08-04T00:36:14.200Z,0
2017-08-04T00:37:14.229Z,0
2017-08-04T00:38:14.264Z,0
2017-08-04T00:39:13.971Z,0
2017-08-04T00:40:14.117Z,0
2017-08-04T00:41:14.455Z,0
2017-08-04T00:42:14.486Z,0
2017-08-04T00:43:14.212Z,0
2017-08-04T00:44:14.563Z,0
2017-08-04T00:45:14.260Z,0
2017-08-04T00:46:14.633Z,0
2017-08-04T00:47:14.677Z,0
2017-08-04T00:48:14.705Z,0
2017-08-04T00:49:14.431Z,0
2017-08-04T00:50:14.944Z,0
2017-08-04T00:51:15.356Z,0
2017-08-04T00:52:15.694Z,0
2017-08-04T00:53:15.415Z,0
2017-08-04T00:54:15.763Z,0
2017-08-04T00:55:15.905Z,0
2017-08-04T00:56:15.843Z,0
2017-08-04T00:57:15.881Z,0
2017-08-04T00:58:15.925Z,0
2017-08-04T00:59:15.943Z,0
2017-08-04T01:00:15.672Z,0
2017-08-04T01:01:16.031Z,0
2017-08-04T01:02:15.852Z,0
2017-08-04T01:03:16.084Z,0
2017-08-04T01:04:16.500Z,0
2017-08-04T01:05:16.538Z,0
2017-08-04T01:06:16.581Z,0
2017-08-04T01:07:16.607Z,0
2017-08-04T01:08:16.640Z,0
2017-08-04T01:09:16.678Z,0
2017-08-04T01:10:16.480Z,0
2017-08-04T01:11:16.755Z,0
2017-08-04T01:12:16.457Z,0
2017-08-04T01:13:16.822Z,0
2017-08-04T01:14:16.861Z,0
2017-08-04T01:15:16.891Z,0
2017-08-04T01:16:16.610Z,0
2017-08-04T01:17:17.343Z,0
2017-08-04T01:18:17.038Z,0
2017-08-04T01:19:17.404Z,0
2017-08-04T01:20:17.439Z,0
2017-08-04T01:21:17.482Z,0
2017-08-04T01:22:17.517Z,0
2017-08-04T01:23:17.539Z,0
2017-08-04T01:24:17.583Z,0
2017-08-04T01:25:17.286Z,0
2017-08-04T01:26:17.705Z,0
2017-08-04T01:27:17.743Z,0
2017-08-04T01:28:17.773Z,0
2017-08-04T01:29:17.501Z,0
2017-08-04T01:30:17.851Z,0
2017-08-04T01:31:17.880Z,0
2017-08-04T01:32:17.935Z,0
2017-08-04T01:33:17.942Z,0
2017-08-04T01:34:17.983Z,0
2017-08-04T01:35:17.694Z,0
2017-08-04T01:36:18.067Z,0
2017-08-04T01:37:18.092Z,0
2017-08-04T01:38:17.797Z,0
2017-08-04T01:39:18.169Z,0
2017-08-04T01:40:17.863Z,0
2017-08-04T01:41:18.236Z,0
2017-08-04T01:42:18.266Z,0
2017-08-04T01:43:18.289Z,0
2017-08-04T01:44:18.036Z,0
2017-08-04T01:45:18.383Z,0
2017-08-04T01:46:18.126Z,0
2017-08-04T01:47:18.450Z,0
2017-08-04T01:48:18.860Z,0
2017-08-04T01:49:18.909Z,0
2017-08-04T01:50:18.930Z,0
2017-08-04T01:51:18.968Z,0
2017-08-04T01:52:18.664Z,0
2017-08-04T01:53:19.041Z,0
2017-08-04T01:54:19.070Z,0
2017-08-04T01:55:18.773Z,0
2017-08-04T01:56:19.152Z,0
2017-08-04T01:57:18.864Z,0
2017-08-04T01:58:18.894Z,0
2017-08-04T01:59:19.646Z,0
2017-08-04T02:00:19.710Z,0
2017-08-04T02:01:19.767Z,0
2017-08-04T02:02:19.220Z,0
2017-08-04T02:03:19.806Z,0
2017-08-04T02:04:19.815Z,0
2017-08-04T02:05:19.853Z,0
2017-08-04T02:06:19.578Z,0
2017-08-04T02:07:19.933Z,0
2017-08-04T02:08:19.959Z,0
2017-08-04T02:09:19.363Z,0
2017-08-04T02:10:20.430Z,0
2017-08-04T02:11:20.454Z,0
2017-08-04T02:12:20.501Z,0
2017-08-04T02:13:20.534Z,0
2017-08-04T02:14:20.562Z,0
2017-08-04T02:15:20.598Z,0
2017-08-04T02:16:20.643Z,0
2017-08-04T02:17:20.663Z,0
2017-08-04T02:18:20.700Z,0
2017-08-04T02:19:20.755Z,0
2017-08-04T02:20:20.775Z,0
2017-08-04T02:21:20.804Z,0
2017-08-04T02:22:20.540Z,0
2017-08-04T02:23:20.880Z,0
2017-08-04T02:24:20.915Z,0
2017-08-04T02:25:20.649Z,0
2017-08-04T02:26:20.992Z,0
2017-08-04T02:27:21.032Z,0
2017-08-04T02:28:21.052Z,0
2017-08-04T02:29:21.111Z,0
2017-08-04T02:30:20.974Z,0
2017-08-04T02:31:21.171Z,0
2017-08-04T02:32:21.195Z,0
2017-08-04T02:33:20.911Z,0
2017-08-04T02:34:20.970Z,0
2017-08-04T02:35:21.418Z,0
2017-08-04T02:36:21.143Z,0
2017-08-04T02:37:21.497Z,0
2017-08-04T02:38:21.222Z,0
2017-08-04T02:39:21.555Z,0
2017-08-04T02:40:21.276Z,0
2017-08-04T02:41:21.623Z,0
2017-08-04T02:42:21.360Z,0
2017-08-04T02:43:21.361Z,0
2017-08-04T02:44:21.740Z,0
2017-08-04T02:45:21.763Z,0
2017-08-04T02:46:21.487Z,0
2017-08-04T02:47:21.854Z,0
2017-08-04T02:48:21.870Z,0
2017-08-04T02:49:21.604Z,0
2017-08-04T02:50:21.706Z,0
2017-08-04T02:51:22.436Z,0
2017-08-04T02:52:22.466Z,0
2017-08-04T02:53:21.873Z,0
2017-08-04T02:54:22.931Z,4
2017-08-04T02:55:22.957Z,4
2017-08-04T02:56:22.703Z,0
2017-08-04T02:57:23.033Z,0
2017-08-04T02:58:23.064Z,4
2017-08-04T02:59:23.098Z,0
2017-08-04T03:00:24.586Z,4
2017-08-04T03:01:23.311Z,0
2017-08-04T03:02:23.206Z,4
2017-08-04T03:03:23.245Z,4
2017-08-04T03:04:23.271Z,8
2017-08-04T03:05:23.307Z,8
2017-08-04T03:06:23.373Z,8
2017-08-04T03:07:22.745Z,8
2017-08-04T03:08:23.807Z,12
2017-08-04T03:09:23.540Z,12
2017-08-04T03:10:23.876Z,12
2017-08-04T03:11:23.910Z,16
2017-08-04T03:12:23.950Z,16
2017-08-04T03:13:23.981Z,24
2017-08-04T03:14:24.013Z,24
2017-08-04T03:15:24.151Z,28
2017-08-04T03:16:24.091Z,28
2017-08-04T03:17:24.121Z,32
2017-08-04T03:18:24.160Z,36
2017-08-04T03:19:24.191Z,40
2017-08-04T03:20:24.333Z,48
2017-08-04T03:21:23.950Z,56
2017-08-04T03:22:24.013Z,64
2017-08-04T03:23:24.341Z,68
2017-08-04T03:24:24.065Z,76
2017-08-04T03:25:24.554Z,84
2017-08-04T03:26:24.445Z,96
2017-08-04T03:27:24.172Z,104
2017-08-04T03:28:24.506Z,112
2017-08-04T03:29:24.548Z,128
2017-08-04T03:30:24.858Z,132
2017-08-04T03:31:24.609Z,140
2017-08-04T03:32:24.657Z,148
2017-08-04T03:33:24.690Z,156
2017-08-04T03:34:24.714Z,168
2017-08-04T03:35:24.757Z,188
2017-08-04T03:36:24.787Z,204
2017-08-04T03:37:24.820Z,216
2017-08-04T03:38:24.867Z,240
2017-08-04T03:39:24.564Z,272
2017-08-04T03:40:24.942Z,316
2017-08-04T03:41:24.964Z,348
2017-08-04T03:42:25.003Z,372
2017-08-04T03:43:24.405Z,392
2017-08-04T03:44:24.846Z,412
2017-08-04T03:45:25.192Z,432
2017-08-04T03:46:25.217Z,448
2017-08-04T03:47:25.159Z,484
2017-08-04T03:48:24.980Z,512
2017-08-04T03:49:25.324Z,524
2017-08-04T03:50:24.751Z,548
2017-08-04T03:51:25.808Z,576
2017-08-04T03:52:25.846Z,600
2017-08-04T03:53:25.880Z,636
2017-08-04T03:54:25.909Z,664
2017-08-04T03:55:25.948Z,688
2017-08-04T03:56:25.978Z,716
2017-08-04T03:57:26.011Z,748
2017-08-04T03:58:25.750Z,776
2017-08-04T03:59:26.082Z,788
2017-08-04T04:00:25.961Z,784
2017-08-04T04:01:26.165Z,812
2017-08-04T04:02:26.192Z,840
2017-08-04T04:03:26.218Z,844
2017-08-04T04:04:25.928Z,844
2017-08-04T04:05:26.403Z,904
2017-08-04T04:06:26.329Z,964
2017-08-04T04:07:26.043Z,996
2017-08-04T04:08:26.396Z,972
2017-08-04T04:09:26.435Z,948
2017-08-04T04:10:26.623Z,976
2017-08-04T04:11:26.509Z,1088
2017-08-04T04:12:26.540Z,1148
2017-08-04T04:13:26.290Z,1252
2017-08-04T04:14:27.028Z,1424
2017-08-04T04:15:26.755Z,1448
2017-08-04T04:16:26.802Z,1332
2017-08-04T04:17:27.162Z,1232
2017-08-04T04:18:27.172Z,1224
2017-08-04T04:19:27.201Z,1236
2017-08-04T04:20:27.238Z,1276
2017-08-04T04:21:27.272Z,1344
2017-08-04T04:22:27.314Z,1372
2017-08-04T04:23:27.033Z,1352
2017-08-04T04:24:27.379Z,1440
2017-08-04T04:25:27.414Z,1604
2017-08-04T04:26:27.446Z,1788
2017-08-04T04:27:27.485Z,1840
2017-08-04T04:28:26.901Z,1848
2017-08-04T04:29:27.331Z,1984
2017-08-04T04:30:28.055Z,2092
2017-08-04T04:31:28.417Z,2108
2017-08-04T04:32:28.140Z,2088
2017-08-04T04:33:27.875Z,2004
2017-08-04T04:34:28.627Z,1900
2017-08-04T04:35:28.693Z,1832
2017-08-04T04:36:28.698Z,1884
2017-08-04T04:37:28.729Z,1856
2017-08-04T04:38:28.778Z,1816
2017-08-04T04:39:28.802Z,1760
2017-08-04T04:40:28.510Z,1824
2017-08-04T04:41:28.878Z,1964
2017-08-04T04:42:28.621Z,2164
2017-08-04T04:43:28.950Z,2376
2017-08-04T04:44:29.362Z,2544
2017-08-04T04:45:29.080Z,2796
2017-08-04T04:46:29.787Z,2936
2017-08-04T04:47:29.828Z,2936
2017-08-04T04:48:29.556Z,2680
2017-08-04T04:49:29.909Z,2688
2017-08-04T04:50:29.930Z,3088
2017-08-04T04:51:29.968Z,3196
2017-08-04T04:52:29.369Z,3368
2017-08-04T04:53:30.118Z,3524
2017-08-04T04:54:30.146Z,3264
2017-08-04T04:55:30.181Z,3100
2017-08-04T04:56:30.213Z,3404
2017-08-04T04:57:30.254Z,3548
2017-08-04T04:58:30.295Z,3376
2017-08-04T04:59:30.323Z,3292
2017-08-04T05:00:30.370Z,3544
2017-08-04T05:01:30.410Z,3868
2017-08-04T05:02:30.430Z,4084
2017-08-04T05:03:30.478Z,4120
2017-08-04T05:04:30.526Z,4104
2017-08-04T05:05:30.224Z,4284
2017-08-04T05:06:30.585Z,4676
2017-08-04T05:07:30.622Z,5024
2017-08-04T05:08:30.655Z,5028
2017-08-04T05:09:30.373Z,4880
2017-08-04T05:10:30.809Z,4804
2017-08-04T05:11:30.841Z,5016
2017-08-04T05:12:30.889Z,5292
2017-08-04T05:13:30.909Z,5060
2017-08-04T05:14:30.958Z,4972
2017-08-04T05:15:31.001Z,4992
2017-08-04T05:16:31.019Z,4872
2017-08-04T05:17:31.057Z,5112
2017-08-04T05:18:30.783Z,5084
2017-08-04T05:19:31.512Z,4984
2017-08-04T05:20:31.542Z,4932
2017-08-04T05:21:31.620Z,4852
2017-08-04T05:22:31.303Z,4864
2017-08-04T05:23:31.711Z,5044
2017-08-04T05:24:32.062Z,5260
2017-08-04T05:25:31.776Z,5428
2017-08-04T05:26:32.137Z,5788
2017-08-04T05:27:32.176Z,6020
2017-08-04T05:28:31.592Z,6112
2017-08-04T05:29:32.047Z,6744
2017-08-04T05:30:32.365Z,5308
2017-08-04T05:31:32.410Z,5432
2017-08-04T05:32:32.169Z,5568
2017-08-04T05:33:32.173Z,5672
2017-08-04T05:34:32.514Z,6308
2017-08-04T05:35:32.558Z,6252
2017-08-04T05:36:32.601Z,5152
2017-08-04T05:37:32.314Z,5208
2017-08-04T05:38:32.677Z,5804
2017-08-04T05:39:32.413Z,6236
2017-08-04T05:40:32.739Z,6576
2017-08-04T05:41:32.823Z,6796
2017-08-04T05:42:32.497Z,7132
2017-08-04T05:43:32.924Z,6932
2017-08-04T05:44:33.674Z,7416
2017-08-04T05:45:33.710Z,7164
2017-08-04T05:46:33.747Z,6060
2017-08-04T05:47:33.795Z,5408
2017-08-04T05:48:33.837Z,5332
2017-08-04T05:49:33.556Z,5920
2017-08-04T05:50:33.905Z,5828
2017-08-04T05:51:33.943Z,5744
2017-08-04T05:52:33.981Z,5624
2017-08-04T05:53:34.018Z,5272
2017-08-04T05:54:34.053Z,5156
2017-08-04T05:55:34.097Z,5460
2017-08-04T05:56:33.830Z,5996
2017-08-04T05:57:34.157Z,7552
2017-08-04T05:58:34.199Z,9148
2017-08-04T05:59:34.235Z,6788
2017-08-04T06:00:34.650Z,5684
2017-08-04T06:01:34.724Z,5072
2017-08-04T06:02:34.109Z,5508
2017-08-04T06:03:35.194Z,4656
2017-08-04T06:04:35.251Z,4688
2017-08-04T06:05:34.943Z,4604
2017-08-04T06:06:35.361Z,4416
2017-08-04T06:07:35.712Z,4576
2017-08-04T06:08:35.420Z,4360
2017-08-04T06:09:35.489Z,4872
2017-08-04T06:10:36.242Z,4828
2017-08-04T06:11:36.276Z,4368
2017-08-04T06:12:36.316Z,4308
2017-08-04T06:13:36.393Z,4372
2017-08-04T06:14:36.404Z,6160
2017-08-04T06:15:36.123Z,6904
2017-08-04T06:16:36.135Z,8736
2017-08-04T06:17:36.176Z,8516
2017-08-04T06:18:36.537Z,8456
2017-08-04T06:19:36.581Z,15136
2017-08-04T06:20:36.626Z,8756
2017-08-04T06:21:36.661Z,9528
2017-08-04T06:22:36.058Z,9604
2017-08-04T06:23:36.489Z,12364
2017-08-04T06:24:36.908Z,7528
2017-08-04T06:25:37.966Z,10036
2017-08-04T06:26:38.011Z,10472
2017-08-04T06:27:38.046Z,7932
2017-08-04T06:28:38.087Z,8644
2017-08-04T06:29:37.814Z,12328
2017-08-04T06:30:38.159Z,9832
2017-08-04T06:31:37.896Z,11104
2017-08-04T06:32:37.932Z,8960
2017-08-04T06:33:38.276Z,13596
2017-08-04T06:34:38.318Z,13444
2017-08-04T06:35:38.354Z,13916
2017-08-04T06:36:38.406Z,13048
2017-08-04T06:37:38.432Z,11652
2017-08-04T06:38:38.475Z,8472
2017-08-04T06:39:38.510Z,8160
2017-08-04T06:40:38.241Z,8520
2017-08-04T06:41:38.600Z,8812
2017-08-04T06:42:38.630Z,7992
2017-08-04T06:43:38.670Z,8256
2017-08-04T06:44:38.703Z,8032
2017-08-04T06:45:38.458Z,6776
2017-08-04T06:46:38.795Z,6208
2017-08-04T06:47:38.850Z,5472
2017-08-04T06:48:38.889Z,5240
2017-08-04T06:49:38.912Z,5268
2017-08-04T06:50:38.952Z,4872
2017-08-04T06:51:39.000Z,5208
2017-08-04T06:52:39.029Z,5780
2017-08-04T06:53:38.762Z,5468
2017-08-04T06:54:39.207Z,6104
2017-08-04T06:55:39.242Z,5596
2017-08-04T06:56:39.284Z,5360
2017-08-04T06:57:39.325Z,4712
2017-08-04T06:58:39.051Z,5716
2017-08-04T06:59:39.411Z,6600
2017-08-04T07:00:39.450Z,8068
2017-08-04T07:01:39.485Z,8228
2017-08-04T07:02:39.523Z,8268
2017-08-04T07:03:39.233Z,9340
2017-08-04T07:04:39.601Z,13236
2017-08-04T07:05:39.323Z,10936
2017-08-04T07:06:40.089Z,11140
2017-08-04T07:07:40.125Z,16128
2017-08-04T07:08:40.171Z,10384
2017-08-04T07:09:39.896Z,12024
2017-08-04T07:10:40.248Z,10928
2017-08-04T07:11:40.285Z,13532
2017-08-04T07:12:40.325Z,11832
2017-08-04T07:13:40.364Z,8500
2017-08-04T07:14:40.103Z,9612
2017-08-04T07:15:40.131Z,8352
2017-08-04T07:16:40.486Z,8948
2017-08-04T07:17:40.527Z,9376
2017-08-04T07:18:40.944Z,11048
2017-08-04T07:19:40.663Z,12268
2017-08-04T07:20:40.690Z,11704
2017-08-04T07:21:40.744Z,9132
2017-08-04T07:22:41.468Z,8364
2017-08-04T07:23:41.514Z,8928
2017-08-04T07:24:41.283Z,7444
2017-08-04T07:25:42.340Z,6708
2017-08-04T07:26:42.388Z,7400
2017-08-04T07:27:42.433Z,9128
2017-08-04T07:28:42.460Z,10764
2017-08-04T07:29:42.196Z,11296
2017-08-04T07:30:42.364Z,11168
2017-08-04T07:31:43.129Z,10508
2017-08-04T07:32:43.174Z,10564
2017-08-04T07:33:42.896Z,19776
2017-08-04T07:34:43.331Z,19808
2017-08-04T07:35:43.376Z,12604
2017-08-04T07:36:43.413Z,12916
2017-08-04T07:37:43.136Z,12240
2017-08-04T07:38:43.903Z,16448
2017-08-04T07:39:43.962Z,16160
2017-08-04T07:40:43.984Z,20864
2017-08-04T07:41:44.012Z,34176
2017-08-04T07:42:44.050Z,36032
2017-08-04T07:43:43.784Z,40672
2017-08-04T07:44:43.836Z,34368
2017-08-04T07:45:43.847Z,18592
2017-08-04T07:46:44.309Z,17152
2017-08-04T07:47:44.356Z,40032
2017-08-04T07:48:44.391Z,54944
2017-08-04T07:49:43.481Z,57696
2017-08-04T07:50:43.932Z,60672
2017-08-04T07:51:44.995Z,14172
2017-08-04T07:52:45.032Z,22944
2017-08-04T07:53:45.938Z,29376
2017-08-04T07:54:45.126Z,48384
2017-08-04T07:55:45.160Z,52992
2017-08-04T07:56:45.208Z,52960
2017-08-04T07:57:44.938Z,54560
2017-08-04T07:58:45.008Z,54240
2017-08-04T07:59:45.337Z,14596
2017-08-04T08:00:45.080Z,27520
2017-08-04T08:01:45.432Z,39136
2017-08-04T08:02:45.152Z,34752
2017-08-04T08:03:45.539Z,43520
2017-08-04T08:04:45.553Z,48576
2017-08-04T08:05:45.594Z,40800
2017-08-04T08:06:45.322Z,50528
2017-08-04T08:07:45.683Z,49888
2017-08-04T08:08:45.419Z,51616
2017-08-04T08:09:45.791Z,50944
2017-08-04T08:10:45.820Z,50752
2017-08-04T08:11:45.549Z,51872
2017-08-04T08:12:45.911Z,46400
2017-08-04T08:13:45.946Z,33248
2017-08-04T08:14:45.994Z,31968
2017-08-04T08:15:46.040Z,37280
2017-08-04T08:16:46.093Z,33792
2017-08-04T08:17:46.142Z,44672
2017-08-04T08:18:45.845Z,47072
2017-08-04T08:19:46.271Z,45024
2017-08-04T08:20:46.636Z,45280
2017-08-04T08:21:46.677Z,40608
2017-08-04T08:22:46.422Z,45536
2017-08-04T08:23:46.455Z,29888
2017-08-04T08:24:46.889Z,27200
2017-08-04T08:25:46.633Z,22400
2017-08-04T08:26:46.675Z,25120
2017-08-04T08:27:47.095Z,20448
2017-08-04T08:28:47.841Z,17728
2017-08-04T08:29:47.576Z,20192
2017-08-04T08:30:48.300Z,22496
2017-08-04T08:31:48.349Z,21472
2017-08-04T08:32:48.387Z,32544
2017-08-04T08:33:48.444Z,38816
2017-08-04T08:34:48.154Z,28320
2017-08-04T08:35:48.218Z,29472
2017-08-04T08:36:48.569Z,31072
2017-08-04T08:37:48.654Z,24608
2017-08-04T08:38:48.662Z,23104
2017-08-04T08:39:48.408Z,22688
2017-08-04T08:40:48.758Z,22432
2017-08-04T08:41:48.809Z,22944
2017-08-04T08:42:48.846Z,19072
2017-08-04T08:43:48.907Z,17920
2017-08-04T08:44:48.932Z,16544
2017-08-04T08:45:48.979Z,16128
2017-08-04T08:46:48.723Z,16512
2017-08-04T08:47:49.069Z,25600
2017-08-04T08:48:49.114Z,27168
2017-08-04T08:49:48.839Z,18816
2017-08-04T08:50:49.569Z,16224
2017-08-04T08:51:49.616Z,14708
2017-08-04T08:52:49.339Z,17568
2017-08-04T08:53:49.700Z,18592
2017-08-04T08:54:49.429Z,18496
2017-08-04T08:55:50.155Z,21472
2017-08-04T08:56:50.209Z,18624
2017-08-04T08:57:49.927Z,17952
2017-08-04T08:58:50.278Z,18560
2017-08-04T08:59:50.335Z,23232
2017-08-04T09:00:50.359Z,20832
2017-08-04T09:01:49.906Z,19392
2017-08-04T09:02:50.474Z,19232
2017-08-04T09:03:50.545Z,17536
2017-08-04T09:04:50.286Z,15808
2017-08-04T09:05:50.598Z,17536
2017-08-04T09:06:50.354Z,18528
2017-08-04T09:07:50.372Z,23232
2017-08-04T09:08:51.078Z,20896
2017-08-04T09:09:50.928Z,21504
2017-08-04T09:10:50.622Z,22112
2017-08-04T09:11:51.424Z,20192
2017-08-04T09:12:51.448Z,18528
2017-08-04T09:13:51.183Z,18720
2017-08-04T09:14:51.210Z,15712
2017-08-04T09:15:51.576Z,24608
2017-08-04T09:16:51.625Z,18272
2017-08-04T09:17:51.671Z,17856
2017-08-04T09:18:51.408Z,17792
2017-08-04T09:19:51.462Z,16864
2017-08-04T09:20:52.219Z,23584
2017-08-04T09:21:52.267Z,21120
2017-08-04T09:22:51.980Z,18400
2017-08-04T09:23:52.026Z,21120
2017-08-04T09:24:52.792Z,18496
2017-08-04T09:25:52.508Z,20960
2017-08-04T09:26:52.617Z,20384
2017-08-04T09:27:52.664Z,20864
2017-08-04T09:28:53.431Z,20256
2017-08-04T09:29:53.478Z,20352
2017-08-04T09:30:53.527Z,20832
2017-08-04T09:31:53.569Z,20608
2017-08-04T09:32:53.000Z,20448
2017-08-04T09:33:53.754Z,14976
2017-08-04T09:34:54.125Z,15456
2017-08-04T09:35:54.164Z,15744
2017-08-04T09:36:54.204Z,16800
2017-08-04T09:37:53.913Z,20352
2017-08-04T09:38:53.985Z,19264
2017-08-04T09:39:54.025Z,20320
2017-08-04T09:40:54.400Z,18336
2017-08-04T09:41:54.125Z,21408
2017-08-04T09:42:54.161Z,17952
2017-08-04T09:43:54.529Z,21792
2017-08-04T09:44:54.586Z,19392
2017-08-04T09:45:54.326Z,19200
2017-08-04T09:46:54.150Z,13800
2017-08-04T09:47:55.209Z,11784
2017-08-04T09:48:55.263Z,20064
2017-08-04T09:49:55.309Z,19424
2017-08-04T09:50:55.359Z,18848
2017-08-04T09:51:55.081Z,18720
2017-08-04T09:52:55.465Z,19328
2017-08-04T09:53:55.518Z,19328
2017-08-04T09:54:55.550Z,20032
2017-08-04T09:55:55.591Z,21664
2017-08-04T09:56:55.650Z,22016
2017-08-04T09:57:55.390Z,21088
2017-08-04T09:58:56.129Z,11676
2017-08-04T09:59:56.174Z,23360
2017-08-04T10:00:55.600Z,17344
2017-08-04T10:01:56.955Z,23136
2017-08-04T10:02:57.007Z,20416
2017-08-04T10:03:56.731Z,19808
2017-08-04T10:04:56.797Z,19392
2017-08-04T10:05:57.222Z,18976
2017-08-04T10:06:57.570Z,18688
2017-08-04T10:07:57.312Z,19712
2017-08-04T10:08:57.676Z,20160
2017-08-04T10:09:57.727Z,22016
2017-08-04T10:10:57.778Z,23616
2017-08-04T10:11:57.816Z,17504
2017-08-04T10:12:57.868Z,17472
2017-08-04T10:13:57.920Z,17760
2017-08-04T10:14:57.652Z,17536
2017-08-04T10:15:58.031Z,24416
2017-08-04T10:16:57.749Z,14976
2017-08-04T10:17:58.478Z,13320
2017-08-04T10:18:58.534Z,12392
2017-08-04T10:19:58.569Z,14136
2017-08-04T10:20:58.627Z,12908
2017-08-04T10:21:58.673Z,19264
2017-08-04T10:22:58.412Z,16160
2017-08-04T10:23:59.208Z,27328
2017-08-04T10:24:58.944Z,30880
2017-08-04T10:25:58.978Z,28160
2017-08-04T10:26:59.334Z,29024
2017-08-04T10:27:59.373Z,20512
2017-08-04T10:28:58.810Z,28032
2017-08-04T10:29:59.880Z,31968
2017-08-04T10:30:59.925Z,31200
2017-08-04T10:31:59.965Z,30464
2017-08-04T10:33:00.018Z,19072
2017-08-04T10:34:00.055Z,34944
2017-08-04T10:35:00.112Z,41440
2017-08-04T10:36:00.139Z,23680
2017-08-04T10:36:59.884Z,27520
2017-08-04T10:37:59.910Z,30112
2017-08-04T10:38:59.955Z,31552
2017-08-04T10:40:00.304Z,33984
2017-08-04T10:41:00.928Z,24704
2017-08-04T10:42:00.676Z,17216
2017-08-04T10:43:00.457Z,13824
2017-08-04T10:44:00.198Z,11384
2017-08-04T10:45:00.546Z,23840
2017-08-04T10:46:00.968Z,28128
2017-08-04T10:47:01.065Z,45952
2017-08-04T10:48:01.072Z,31456
2017-08-04T10:49:01.101Z,22112
2017-08-04T10:50:00.506Z,14700
2017-08-04T10:51:01.573Z,14496
2017-08-04T10:52:01.289Z,22272
2017-08-04T10:53:01.398Z,11056
2017-08-04T10:54:01.753Z,10368
2017-08-04T10:55:01.790Z,17120
2017-08-04T10:56:01.577Z,20544
2017-08-04T10:57:01.880Z,18016
2017-08-04T10:58:02.037Z,18752
2017-08-04T10:59:01.456Z,17152
2017-08-04T11:00:02.235Z,17056
2017-08-04T11:01:02.440Z,17056
2017-08-04T11:02:02.792Z,15520
2017-08-04T11:03:02.536Z,14712
2017-08-04T11:04:02.569Z,15360
2017-08-04T11:05:02.611Z,14192
2017-08-04T11:06:02.649Z,13184
2017-08-04T11:07:02.704Z,12672
2017-08-04T11:08:03.045Z,12212
2017-08-04T11:09:03.107Z,11644
2017-08-04T11:10:03.131Z,14040
2017-08-04T11:11:02.846Z,13776
2017-08-04T11:12:02.906Z,13592
2017-08-04T11:13:03.256Z,12808
2017-08-04T11:14:02.995Z,12776
2017-08-04T11:15:03.516Z,12512
2017-08-04T11:16:03.491Z,11832
2017-08-04T11:17:03.563Z,10520
2017-08-04T11:18:04.361Z,10220
2017-08-04T11:19:04.059Z,10436
2017-08-04T11:20:04.885Z,10768
2017-08-04T11:21:04.851Z,10944
2017-08-04T11:22:04.896Z,11412
2017-08-04T11:23:04.640Z,12424
2017-08-04T11:24:04.651Z,12372
2017-08-04T11:25:04.435Z,10752
2017-08-04T11:26:04.743Z,10788
2017-08-04T11:27:04.798Z,11328
2017-08-04T11:28:04.844Z,10504
2017-08-04T11:29:05.256Z,9932
2017-08-04T11:30:05.685Z,10372
2017-08-04T11:31:05.428Z,9716
2017-08-04T11:32:05.846Z,10204
2017-08-04T11:33:06.193Z,10224
2017-08-04T11:34:05.929Z,10152
2017-08-04T11:35:06.266Z,11200
2017-08-04T11:36:06.347Z,12100
2017-08-04T11:37:06.358Z,12140
2017-08-04T11:38:06.089Z,11696
2017-08-04T11:39:06.133Z,10808
2017-08-04T11:40:06.488Z,10332
2017-08-04T11:41:06.534Z,11092
2017-08-04T11:42:06.561Z,10564
2017-08-04T11:43:06.281Z,8964
2017-08-04T11:44:06.645Z,7684
2017-08-04T11:45:06.388Z,7112
2017-08-04T11:46:06.789Z,7280
2017-08-04T11:47:06.507Z,7612
2017-08-04T11:48:06.522Z,7540
2017-08-04T11:49:06.216Z,7300
2017-08-04T11:50:07.063Z,7384
2017-08-04T11:51:06.716Z,6856
2017-08-04T11:52:07.479Z,6184
2017-08-04T11:53:07.195Z,5744
2017-08-04T11:54:07.552Z,5416
2017-08-04T11:55:07.336Z,4856
2017-08-04T11:56:07.296Z,4616
2017-08-04T11:57:07.683Z,4580
2017-08-04T11:58:07.405Z,4696
2017-08-04T11:59:07.824Z,5464
2017-08-04T12:00:08.130Z,6416
2017-08-04T12:01:07.571Z,5708
2017-08-04T12:02:08.949Z,6820
2017-08-04T12:03:08.689Z,6176
2017-08-04T12:04:08.746Z,5536
2017-08-04T12:05:08.786Z,7080
2017-08-04T12:06:08.496Z,7092
2017-08-04T12:07:08.540Z,6360
2017-08-04T12:08:08.572Z,6572
2017-08-04T12:09:08.604Z,6476
2017-08-04T12:10:09.044Z,6448
2017-08-04T12:11:09.012Z,6036
2017-08-04T12:12:09.050Z,6220
2017-08-04T12:13:08.777Z,5700
2017-08-04T12:14:09.195Z,6140
2017-08-04T12:15:09.942Z,7976
2017-08-04T12:16:09.999Z,7384
2017-08-04T12:17:10.030Z,7084
2017-08-04T12:18:09.736Z,5800
2017-08-04T12:19:09.799Z,7232
2017-08-04T12:20:10.702Z,7136
2017-08-04T12:21:10.758Z,6248
2017-08-04T12:22:10.776Z,4916
2017-08-04T12:23:10.852Z,4268
2017-08-04T12:24:10.882Z,3764
2017-08-04T12:25:10.951Z,3720
2017-08-04T12:26:10.638Z,5528
2017-08-04T12:27:11.060Z,5996
2017-08-04T12:28:10.453Z,4448
2017-08-04T12:29:11.130Z,3844
2017-08-04T12:30:10.902Z,3452
2017-08-04T12:31:11.133Z,3572
2017-08-04T12:32:11.173Z,3468
2017-08-04T12:33:10.899Z,3316
2017-08-04T12:34:11.245Z,3564
2017-08-04T12:35:11.051Z,3960
2017-08-04T12:36:11.025Z,4828
2017-08-04T12:37:11.472Z,5140
2017-08-04T12:38:12.231Z,4824
2017-08-04T12:39:12.257Z,4828
2017-08-04T12:40:12.324Z,4732
2017-08-04T12:41:12.031Z,4368
2017-08-04T12:42:12.062Z,4816
2017-08-04T12:43:12.111Z,5100
2017-08-04T12:44:12.152Z,4712
2017-08-04T12:45:12.569Z,4004
2017-08-04T12:46:12.296Z,4168
2017-08-04T12:47:12.355Z,4800
2017-08-04T12:48:12.693Z,6156
2017-08-04T12:49:12.411Z,6052
2017-08-04T12:50:12.769Z,5184
2017-08-04T12:51:13.199Z,5220
2017-08-04T12:52:13.339Z,5800
2017-08-04T12:53:13.023Z,6352
2017-08-04T12:54:12.628Z,6692
2017-08-04T12:55:12.977Z,7644
2017-08-04T12:56:12.363Z,6164
2017-08-04T12:57:13.099Z,5188
2017-08-04T12:58:13.141Z,6076
2017-08-04T12:59:13.580Z,7400
2017-08-04T13:00:13.628Z,6068
2017-08-04T13:01:13.661Z,5480
2017-08-04T13:02:13.466Z,4852
2017-08-04T13:03:13.734Z,4344
2017-08-04T13:04:13.442Z,5096
2017-08-04T13:05:13.632Z,5532
2017-08-04T13:06:13.848Z,6484
2017-08-04T13:07:13.893Z,6356
2017-08-04T13:08:13.932Z,5924
2017-08-04T13:09:13.963Z,5464
2017-08-04T13:10:13.398Z,4712
2017-08-04T13:11:14.155Z,4168
2017-08-04T13:12:14.186Z,3736
2017-08-04T13:13:13.898Z,3288
2017-08-04T13:14:14.005Z,2872
2017-08-04T13:15:14.774Z,2828
2017-08-04T13:16:15.105Z,2756
2017-08-04T13:17:15.136Z,2632
2017-08-04T13:18:15.556Z,2592
2017-08-04T13:19:15.595Z,2592
2017-08-04T13:20:15.637Z,2568
2017-08-04T13:21:15.374Z,2540
2017-08-04T13:22:15.722Z,2520
2017-08-04T13:23:15.448Z,2540
2017-08-04T13:24:15.906Z,2524
2017-08-04T13:25:16.660Z,2516
2017-08-04T13:26:16.694Z,2460
2017-08-04T13:27:16.431Z,2572
2017-08-04T13:28:16.472Z,2904
2017-08-04T13:29:16.815Z,2796
2017-08-04T13:30:17.007Z,2516
2017-08-04T13:31:16.576Z,2456